createdAt,value
2022-07-28T00:00:33.037Z,0.00
2022-07-28T00:01:33.101Z,0.00
2022-07-28T00:02:33.014Z,0.00
2022-07-28T00:03:32.982Z,0.00
2022-07-28T00:04:32.952Z,0.00
2022-07-28T00:05:32.934Z,0.00
2022-07-28T00:06:32.914Z,0.00
2022-07-28T00:07:32.891Z,0.00
2022-07-28T00:08:32.870Z,0.00
2022-07-28T00:09:32.850Z,0.00
2022-07-28T00:10:32.835Z,0.00
2022-07-28T00:11:32.812Z,0.00
2022-07-28T00:12:32.787Z,0.00
2022-07-28T00:13:32.770Z,0.00
2022-07-28T00:14:32.748Z,0.00
2022-07-28T00:15:32.724Z,0.00
2022-07-28T00:16:32.812Z,0.00
2022-07-28T00:17:32.687Z,0.00
2022-07-28T00:18:32.665Z,0.00
2022-07-28T00:19:32.647Z,0.00
2022-07-28T00:20:32.623Z,0.00
2022-07-28T00:21:32.604Z,0.00
2022-07-28T00:22:32.583Z,0.00
2022-07-28T00:23:39.580Z,0.00
2022-07-28T00:24:32.540Z,0.00
2022-07-28T00:25:32.522Z,0.00
2022-07-28T00:26:32.499Z,0.00
2022-07-28T00:27:32.479Z,0.00
2022-07-28T00:28:32.458Z,0.00
2022-07-28T00:29:49.197Z,0.00
2022-07-28T00:30:32.418Z,0.00
2022-07-28T00:31:32.461Z,0.00
2022-07-28T00:32:32.377Z,0.00
2022-07-28T00:33:32.355Z,0.00
2022-07-28T00:34:32.336Z,0.00
2022-07-28T00:35:32.315Z,0.00
2022-07-28T00:36:32.292Z,0.00
2022-07-28T00:37:32.272Z,0.00
2022-07-28T00:38:32.251Z,0.00
2022-07-28T00:39:32.230Z,0.00
2022-07-28T00:40:32.218Z,0.00
2022-07-28T00:41:32.191Z,0.00
2022-07-28T00:42:32.167Z,0.00
2022-07-28T00:43:32.147Z,0.00
2022-07-28T00:44:32.126Z,0.00
2022-07-28T00:45:32.107Z,0.00
2022-07-28T00:46:32.104Z,0.00
2022-07-28T00:47:34.014Z,0.00
2022-07-28T00:48:32.099Z,0.00
2022-07-28T00:49:32.023Z,0.00
2022-07-28T00:50:32.001Z,0.00
2022-07-28T00:51:31.986Z,0.00
2022-07-28T00:52:31.968Z,0.00
2022-07-28T00:53:31.944Z,0.00
2022-07-28T00:54:31.922Z,0.00
2022-07-28T00:55:31.900Z,0.00
2022-07-28T00:56:31.879Z,0.00
2022-07-28T00:57:31.860Z,0.00
2022-07-28T00:58:31.837Z,0.00
2022-07-28T00:59:33.835Z,0.00
2022-07-28T01:00:31.821Z,0.00
2022-07-28T01:01:31.868Z,0.00
2022-07-28T01:02:31.934Z,0.00
2022-07-28T01:03:31.735Z,0.00
2022-07-28T01:04:31.716Z,0.00
2022-07-28T01:05:43.370Z,0.00
2022-07-28T01:06:31.680Z,0.00
2022-07-28T01:07:31.650Z,0.00
2022-07-28T01:08:31.631Z,0.00
2022-07-28T01:09:31.609Z,0.00
2022-07-28T01:10:31.588Z,0.00
2022-07-28T01:11:31.571Z,0.00
2022-07-28T01:12:31.555Z,0.00
2022-07-28T01:13:33.149Z,0.00
2022-07-28T01:14:31.508Z,0.00
2022-07-28T01:15:31.488Z,0.00
2022-07-28T01:16:31.511Z,0.00
2022-07-28T01:17:31.449Z,0.00
2022-07-28T01:18:31.431Z,0.00
2022-07-28T01:19:31.406Z,0.00
2022-07-28T01:20:31.388Z,0.00
2022-07-28T01:21:31.365Z,0.00
2022-07-28T01:22:31.340Z,0.00
2022-07-28T01:23:31.328Z,0.00
2022-07-28T01:24:31.303Z,0.00
2022-07-28T01:25:31.279Z,0.00
2022-07-28T01:26:31.256Z,0.00
2022-07-28T01:27:31.236Z,0.00
2022-07-28T01:28:31.215Z,0.00
2022-07-28T01:29:31.195Z,0.00
2022-07-28T01:30:31.173Z,0.00
2022-07-28T01:31:31.258Z,0.00
2022-07-28T01:32:31.131Z,0.00
2022-07-28T01:33:31.111Z,0.00
2022-07-28T01:34:31.089Z,0.00
2022-07-28T01:35:31.075Z,0.00
2022-07-28T01:36:31.053Z,0.00
2022-07-28T01:37:31.034Z,0.00
2022-07-28T01:38:31.008Z,0.00
2022-07-28T01:39:31.006Z,0.00
2022-07-28T01:40:30.965Z,0.00
2022-07-28T01:41:30.946Z,0.00
2022-07-28T01:42:30.926Z,0.00
2022-07-28T01:43:30.904Z,0.00
2022-07-28T01:44:30.882Z,0.00
2022-07-28T01:45:30.872Z,0.00
2022-07-28T01:46:30.932Z,0.00
2022-07-28T01:47:30.832Z,0.00
2022-07-28T01:48:30.800Z,0.00
2022-07-28T01:49:30.780Z,0.00
2022-07-28T01:50:30.758Z,0.00
2022-07-28T01:51:30.736Z,0.00
2022-07-28T01:52:30.718Z,0.00
2022-07-28T01:53:30.703Z,0.00
2022-07-28T01:54:30.679Z,0.00
2022-07-28T01:55:30.654Z,0.00
2022-07-28T01:56:30.638Z,0.00
2022-07-28T01:57:30.612Z,0.00
2022-07-28T01:58:30.595Z,0.00
2022-07-28T01:59:31.973Z,0.00
2022-07-28T02:00:30.548Z,0.00
2022-07-28T02:01:30.580Z,0.00
2022-07-28T02:02:30.510Z,0.00
2022-07-28T02:03:30.487Z,0.00
2022-07-28T02:04:30.567Z,0.00
2022-07-28T02:05:30.549Z,0.00
2022-07-28T02:06:30.427Z,0.00
2022-07-28T02:07:30.414Z,0.00
2022-07-28T02:08:30.382Z,0.00
2022-07-28T02:09:30.363Z,0.00
2022-07-28T02:10:30.341Z,0.00
2022-07-28T02:11:30.323Z,0.00
2022-07-28T02:12:30.300Z,0.00
2022-07-28T02:13:30.282Z,0.00
2022-07-28T02:14:30.261Z,0.00
2022-07-28T02:15:30.272Z,0.00
2022-07-28T02:16:30.219Z,0.00
2022-07-28T02:17:30.197Z,0.00
2022-07-28T02:18:30.176Z,0.00
2022-07-28T02:19:30.156Z,0.00
2022-07-28T02:20:30.134Z,0.00
2022-07-28T02:21:30.115Z,0.00
2022-07-28T02:22:30.094Z,0.00
2022-07-28T02:23:30.071Z,0.00
2022-07-28T02:24:30.048Z,0.00
2022-07-28T02:25:30.029Z,0.00
2022-07-28T02:26:30.008Z,0.00
2022-07-28T02:27:29.997Z,0.00
2022-07-28T02:28:29.964Z,0.00
2022-07-28T02:29:49.734Z,0.00
2022-07-28T02:30:29.924Z,0.00
2022-07-28T02:31:30.024Z,0.00
2022-07-28T02:32:29.882Z,0.00
2022-07-28T02:33:57.974Z,0.00
2022-07-28T02:34:29.839Z,0.00
2022-07-28T02:35:32.034Z,0.00
2022-07-28T02:36:29.801Z,0.00
2022-07-28T02:37:29.778Z,0.00
2022-07-28T02:38:29.761Z,0.00
2022-07-28T02:39:29.734Z,0.00
2022-07-28T02:40:29.715Z,0.00
2022-07-28T02:41:29.693Z,0.00
2022-07-28T02:42:29.673Z,0.00
2022-07-28T02:43:49.357Z,0.00
2022-07-28T02:44:29.630Z,0.00
2022-07-28T02:45:29.610Z,0.00
2022-07-28T02:46:29.691Z,0.00
2022-07-28T02:47:29.569Z,0.00
2022-07-28T02:48:29.550Z,0.00
2022-07-28T02:49:29.528Z,0.00
2022-07-28T02:50:29.506Z,0.00
2022-07-28T02:51:29.497Z,0.00
2022-07-28T02:52:29.469Z,0.00
2022-07-28T02:53:29.443Z,0.00
2022-07-28T02:54:29.423Z,0.00
2022-07-28T02:55:29.401Z,0.00
2022-07-28T02:56:29.387Z,0.00
2022-07-28T02:57:29.360Z,0.00
2022-07-28T02:58:29.340Z,0.00
2022-07-28T02:59:29.317Z,0.00
2022-07-28T03:00:29.298Z,0.00
2022-07-28T03:01:29.363Z,0.00
2022-07-28T03:02:29.255Z,0.00
2022-07-28T03:03:29.235Z,0.00
2022-07-28T03:04:29.209Z,0.00
2022-07-28T03:05:29.228Z,0.00
2022-07-28T03:06:29.214Z,0.00
2022-07-28T03:07:29.152Z,0.00
2022-07-28T03:08:29.131Z,0.00
2022-07-28T03:09:29.109Z,0.00
2022-07-28T03:10:34.070Z,0.00
2022-07-28T03:11:29.073Z,0.00
2022-07-28T03:12:29.047Z,0.00
2022-07-28T03:13:29.022Z,0.00
2022-07-28T03:14:29.004Z,0.00
2022-07-28T03:15:28.981Z,0.00
2022-07-28T03:16:29.033Z,0.00
2022-07-28T03:17:28.939Z,0.00
2022-07-28T03:18:28.921Z,0.00
2022-07-28T03:19:28.898Z,0.00
2022-07-28T03:20:28.877Z,0.00
2022-07-28T03:21:28.856Z,0.00
2022-07-28T03:22:28.836Z,0.00
2022-07-28T03:23:28.813Z,0.00
2022-07-28T03:24:28.794Z,0.00
2022-07-28T03:25:28.793Z,0.00
2022-07-28T03:26:28.752Z,0.00
2022-07-28T03:27:28.727Z,0.00
2022-07-28T03:28:28.708Z,0.00
2022-07-28T03:29:28.685Z,0.00
2022-07-28T03:30:28.733Z,0.00
2022-07-28T03:31:28.643Z,0.00
2022-07-28T03:32:28.623Z,0.00
2022-07-28T03:33:28.601Z,0.00
2022-07-28T03:34:28.586Z,0.00
2022-07-28T03:35:28.558Z,0.00
2022-07-28T03:36:28.541Z,0.00
2022-07-28T03:37:28.520Z,0.00
2022-07-28T03:38:28.499Z,0.00
2022-07-28T03:39:28.474Z,0.00
2022-07-28T03:40:28.455Z,0.00
2022-07-28T03:41:28.433Z,0.00
2022-07-28T03:42:28.414Z,0.00
2022-07-28T03:43:28.390Z,0.00
2022-07-28T03:44:29.147Z,0.00
2022-07-28T03:45:28.350Z,0.00
2022-07-28T03:46:28.417Z,0.00
2022-07-28T03:47:28.306Z,0.00
2022-07-28T03:48:28.285Z,0.00
2022-07-28T03:49:28.265Z,0.00
2022-07-28T03:50:28.249Z,0.00
2022-07-28T03:51:28.225Z,0.00
2022-07-28T03:52:28.202Z,0.00
2022-07-28T03:53:28.181Z,0.00
2022-07-28T03:54:28.160Z,0.00
2022-07-28T03:55:28.148Z,0.00
2022-07-28T03:56:28.123Z,0.00
2022-07-28T03:57:28.099Z,0.00
2022-07-28T03:58:28.674Z,0.00
2022-07-28T03:59:28.054Z,0.00
2022-07-28T04:00:28.038Z,0.00
2022-07-28T04:01:28.108Z,0.00
2022-07-28T04:02:28.056Z,0.00
2022-07-28T04:03:42.597Z,0.00
2022-07-28T04:04:27.951Z,0.00
2022-07-28T04:05:27.930Z,0.00
2022-07-28T04:06:27.908Z,0.00
2022-07-28T04:07:27.884Z,0.00
2022-07-28T04:08:27.867Z,0.00
2022-07-28T04:09:27.843Z,0.00
2022-07-28T04:10:27.823Z,0.00
2022-07-28T04:11:27.801Z,0.00
2022-07-28T04:12:27.779Z,0.00
2022-07-28T04:13:27.759Z,0.00
2022-07-28T04:14:27.738Z,0.00
2022-07-28T04:15:27.715Z,0.00
2022-07-28T04:16:27.780Z,0.00
2022-07-28T04:17:27.673Z,0.00
2022-07-28T04:18:27.656Z,0.00
2022-07-28T04:19:27.635Z,0.00
2022-07-28T04:20:27.611Z,0.00
2022-07-28T04:21:27.592Z,0.00
2022-07-28T04:22:27.572Z,0.00
2022-07-28T04:23:27.547Z,0.00
2022-07-28T04:24:27.525Z,0.00
2022-07-28T04:25:27.508Z,0.00
2022-07-28T04:26:27.484Z,0.00
2022-07-28T04:27:27.460Z,0.00
2022-07-28T04:28:27.439Z,0.00
2022-07-28T04:29:27.751Z,0.00
2022-07-28T04:30:27.452Z,0.00
2022-07-28T04:31:27.452Z,0.00
2022-07-28T04:32:27.356Z,0.00
2022-07-28T04:33:27.339Z,0.00
2022-07-28T04:34:27.321Z,0.00
2022-07-28T04:35:27.292Z,0.00
2022-07-28T04:36:27.275Z,0.00
2022-07-28T04:37:27.250Z,0.00
2022-07-28T04:38:27.231Z,0.00
2022-07-28T04:39:27.207Z,0.00
2022-07-28T04:40:27.196Z,0.00
2022-07-28T04:41:27.170Z,0.00
2022-07-28T04:42:27.147Z,0.00
2022-07-28T04:43:27.127Z,0.00
2022-07-28T04:44:27.103Z,0.00
2022-07-28T04:45:27.081Z,0.00
2022-07-28T04:46:27.139Z,0.00
2022-07-28T04:47:27.042Z,0.00
2022-07-28T04:48:27.018Z,0.00
2022-07-28T04:49:26.996Z,0.00
2022-07-28T04:50:26.981Z,0.00
2022-07-28T04:51:26.959Z,0.00
2022-07-28T04:52:26.936Z,0.00
2022-07-28T04:53:26.911Z,0.00
2022-07-28T04:54:27.004Z,0.00
2022-07-28T04:55:26.873Z,0.00
2022-07-28T04:56:26.851Z,5.63
2022-07-28T04:57:26.829Z,5.63
2022-07-28T04:58:26.807Z,5.63
2022-07-28T04:59:26.784Z,5.63
2022-07-28T05:00:26.768Z,5.63
2022-07-28T05:01:26.805Z,5.63
2022-07-28T05:02:26.723Z,5.63
2022-07-28T05:03:26.699Z,5.63
2022-07-28T05:04:26.779Z,5.63
2022-07-28T05:05:26.659Z,5.63
2022-07-28T05:06:26.639Z,5.63
2022-07-28T05:07:26.616Z,5.63
2022-07-28T05:08:26.822Z,5.63
2022-07-28T05:09:26.574Z,5.63
2022-07-28T05:10:26.554Z,5.63
2022-07-28T05:11:26.529Z,5.63
2022-07-28T05:12:26.510Z,5.63
2022-07-28T05:13:31.911Z,5.63
2022-07-28T05:14:26.549Z,5.63
2022-07-28T05:15:26.452Z,5.63
2022-07-28T05:16:26.495Z,5.63
2022-07-28T05:17:26.410Z,5.63
2022-07-28T05:18:26.385Z,5.63
2022-07-28T05:19:26.362Z,5.63
2022-07-28T05:20:26.341Z,5.63
2022-07-28T05:21:26.319Z,5.63
2022-07-28T05:22:26.304Z,5.63
2022-07-28T05:23:26.275Z,5.63
2022-07-28T05:24:26.261Z,5.63
2022-07-28T05:25:26.237Z,5.63
2022-07-28T05:26:26.219Z,5.63
2022-07-28T05:27:26.191Z,5.63
2022-07-28T05:28:26.173Z,5.63
2022-07-28T05:29:26.151Z,5.63
2022-07-28T05:30:26.131Z,5.63
2022-07-28T05:31:26.159Z,5.63
2022-07-28T05:32:26.129Z,5.63
2022-07-28T05:33:30.187Z,5.63
2022-07-28T05:34:26.050Z,11.25
2022-07-28T05:35:26.022Z,11.25
2022-07-28T05:36:26.003Z,11.25
2022-07-28T05:37:25.981Z,11.25
2022-07-28T05:38:25.962Z,11.25
2022-07-28T05:39:25.939Z,11.25
2022-07-28T05:40:25.918Z,11.25
2022-07-28T05:41:25.897Z,11.25
2022-07-28T05:42:25.877Z,11.25
2022-07-28T05:43:25.856Z,11.25
2022-07-28T05:44:25.832Z,16.88
2022-07-28T05:45:25.871Z,16.88
2022-07-28T05:46:25.791Z,16.88
2022-07-28T05:47:25.771Z,16.88
2022-07-28T05:48:25.754Z,16.88
2022-07-28T05:49:25.790Z,16.88
2022-07-28T05:50:25.707Z,16.88
2022-07-28T05:51:25.686Z,16.88
2022-07-28T05:52:25.666Z,16.88
2022-07-28T05:53:25.644Z,16.88
2022-07-28T05:54:25.890Z,16.88
2022-07-28T05:55:25.602Z,16.88
2022-07-28T05:56:25.589Z,16.88
2022-07-28T05:57:25.565Z,11.25
2022-07-28T05:58:25.541Z,11.25
2022-07-28T05:59:25.516Z,11.25
2022-07-28T06:00:25.497Z,11.25
2022-07-28T06:01:25.588Z,11.25
2022-07-28T06:02:25.539Z,11.25
2022-07-28T06:03:25.435Z,11.25
2022-07-28T06:04:25.538Z,11.25
2022-07-28T06:05:25.391Z,11.25
2022-07-28T06:06:25.378Z,11.25
2022-07-28T06:07:42.891Z,11.25
2022-07-28T06:08:25.333Z,11.25
2022-07-28T06:09:25.308Z,11.25
2022-07-28T06:10:25.289Z,11.25
2022-07-28T06:11:25.267Z,11.25
2022-07-28T06:12:25.244Z,11.25
2022-07-28T06:13:25.225Z,11.25
2022-07-28T06:14:25.202Z,11.25
2022-07-28T06:15:25.184Z,11.25
2022-07-28T06:16:25.186Z,11.25
2022-07-28T06:17:25.145Z,11.25
2022-07-28T06:18:25.122Z,11.25
2022-07-28T06:19:25.097Z,11.25
2022-07-28T06:20:25.094Z,11.25
2022-07-28T06:21:25.056Z,11.25
2022-07-28T06:22:25.038Z,11.25
2022-07-28T06:23:25.013Z,11.25
2022-07-28T06:24:24.994Z,11.25
2022-07-28T06:25:24.971Z,11.25
2022-07-28T06:26:24.951Z,11.25
2022-07-28T06:27:24.928Z,11.25
2022-07-28T06:28:24.909Z,11.25
2022-07-28T06:29:24.889Z,11.25
2022-07-28T06:30:24.871Z,11.25
2022-07-28T06:31:24.935Z,11.25
2022-07-28T06:32:24.850Z,11.25
2022-07-28T06:33:24.817Z,11.25
2022-07-28T06:34:24.787Z,16.88
2022-07-28T06:35:24.769Z,16.88
2022-07-28T06:36:24.745Z,16.88
2022-07-28T06:37:24.720Z,16.88
2022-07-28T06:38:24.706Z,16.88
2022-07-28T06:39:24.687Z,16.88
2022-07-28T06:40:24.660Z,16.88
2022-07-28T06:41:24.642Z,16.88
2022-07-28T06:42:24.617Z,16.88
2022-07-28T06:43:24.594Z,22.50
2022-07-28T06:44:37.504Z,22.50
2022-07-28T06:45:24.555Z,22.50
2022-07-28T06:46:24.589Z,16.88
2022-07-28T06:47:24.510Z,16.88
2022-07-28T06:48:28.755Z,16.88
2022-07-28T06:49:24.539Z,16.88
2022-07-28T06:50:24.452Z,16.88
2022-07-28T06:51:24.427Z,16.88
2022-07-28T06:52:24.412Z,16.88
2022-07-28T06:53:24.390Z,16.88
2022-07-28T06:54:24.369Z,16.88
2022-07-28T06:55:24.346Z,16.88
2022-07-28T06:56:24.326Z,16.88
2022-07-28T06:57:24.305Z,16.88
2022-07-28T06:58:24.286Z,16.88
2022-07-28T06:59:24.264Z,16.88
2022-07-28T07:00:24.242Z,16.88
2022-07-28T07:01:24.306Z,16.88
2022-07-28T07:02:27.998Z,16.88
2022-07-28T07:03:24.180Z,16.88
2022-07-28T07:04:24.216Z,22.50
2022-07-28T07:05:24.138Z,22.50
2022-07-28T07:06:24.120Z,16.88
2022-07-28T07:07:24.097Z,22.50
2022-07-28T07:08:24.077Z,22.50
2022-07-28T07:09:24.057Z,22.50
2022-07-28T07:10:24.039Z,22.50
2022-07-28T07:11:24.020Z,22.50
2022-07-28T07:12:23.995Z,22.50
2022-07-28T07:13:23.972Z,22.50
2022-07-28T07:14:23.956Z,22.50
2022-07-28T07:15:23.938Z,22.50
2022-07-28T07:16:23.964Z,22.50
2022-07-28T07:17:23.889Z,22.50
2022-07-28T07:18:23.878Z,22.50
2022-07-28T07:19:23.847Z,22.50
2022-07-28T07:20:23.828Z,22.50
2022-07-28T07:21:23.813Z,22.50
2022-07-28T07:22:23.793Z,22.50
2022-07-28T07:23:23.765Z,22.50
2022-07-28T07:24:23.748Z,22.50
2022-07-28T07:25:23.725Z,22.50
2022-07-28T07:26:23.723Z,28.13
2022-07-28T07:27:23.684Z,22.50
2022-07-28T07:28:23.665Z,28.13
2022-07-28T07:29:23.658Z,28.13
2022-07-28T07:30:23.624Z,28.13
2022-07-28T07:31:23.656Z,33.75
2022-07-28T07:32:23.586Z,33.75
2022-07-28T07:33:23.562Z,33.75
2022-07-28T07:34:23.539Z,33.75
2022-07-28T07:35:23.518Z,33.75
2022-07-28T07:36:23.497Z,33.75
2022-07-28T07:37:23.478Z,33.75
2022-07-28T07:38:28.820Z,33.75
2022-07-28T07:39:23.437Z,33.75
2022-07-28T07:40:23.421Z,39.38
2022-07-28T07:41:23.399Z,39.38
2022-07-28T07:42:24.631Z,39.38
2022-07-28T07:43:23.360Z,39.38
2022-07-28T07:44:23.334Z,39.38
2022-07-28T07:45:23.316Z,39.38
2022-07-28T07:46:23.378Z,39.38
2022-07-28T07:47:23.273Z,39.38
2022-07-28T07:48:23.253Z,39.38
2022-07-28T07:49:23.311Z,39.38
2022-07-28T07:50:23.268Z,39.38
2022-07-28T07:51:23.192Z,39.38
2022-07-28T07:52:23.177Z,39.38
2022-07-28T07:53:23.152Z,39.38
2022-07-28T07:54:23.132Z,39.38
2022-07-28T07:55:23.114Z,39.38
2022-07-28T07:56:23.093Z,33.75
2022-07-28T07:57:23.074Z,39.38
2022-07-28T07:58:23.051Z,45.00
2022-07-28T07:59:23.033Z,45.00
2022-07-28T08:00:28.819Z,45.00
2022-07-28T08:01:23.053Z,45.00
2022-07-28T08:02:22.969Z,50.63
2022-07-28T08:03:22.958Z,50.63
2022-07-28T08:04:25.459Z,50.63
2022-07-28T08:05:34.917Z,56.25
2022-07-28T08:06:26.553Z,56.25
2022-07-28T08:07:22.870Z,61.88
2022-07-28T08:08:22.848Z,61.88
2022-07-28T08:09:22.830Z,61.88
2022-07-28T08:10:22.834Z,61.88
2022-07-28T08:11:22.786Z,61.88
2022-07-28T08:12:25.206Z,61.88
2022-07-28T08:13:22.757Z,61.88
2022-07-28T08:14:22.728Z,61.88
2022-07-28T08:15:22.708Z,61.88
2022-07-28T08:16:22.904Z,61.88
2022-07-28T08:17:25.816Z,61.88
2022-07-28T08:18:22.649Z,67.50
2022-07-28T08:19:22.632Z,67.50
2022-07-28T08:20:22.687Z,67.50
2022-07-28T08:21:22.588Z,67.50
2022-07-28T08:22:22.574Z,67.50
2022-07-28T08:23:26.166Z,73.13
2022-07-28T08:24:32.331Z,78.75
2022-07-28T08:25:22.517Z,67.50
2022-07-28T08:26:22.491Z,67.50
2022-07-28T08:27:22.478Z,45.00
2022-07-28T08:28:22.451Z,45.00
2022-07-28T08:29:22.441Z,61.88
2022-07-28T08:30:25.243Z,61.88
2022-07-28T08:31:22.443Z,61.88
2022-07-28T08:32:22.381Z,61.88
2022-07-28T08:33:22.357Z,61.88
2022-07-28T08:34:31.848Z,61.88
2022-07-28T08:35:32.826Z,56.25
2022-07-28T08:36:22.299Z,45.00
2022-07-28T08:37:22.284Z,50.63
2022-07-28T08:38:22.260Z,61.88
2022-07-28T08:39:22.239Z,73.13
2022-07-28T08:40:27.173Z,78.75
2022-07-28T08:41:22.199Z,61.88
2022-07-28T08:42:22.179Z,45.00
2022-07-28T08:43:22.159Z,61.88
2022-07-28T08:44:22.138Z,61.88
2022-07-28T08:45:22.118Z,61.88
2022-07-28T08:46:22.165Z,73.13
2022-07-28T08:47:22.081Z,61.88
2022-07-28T08:48:22.060Z,78.75
2022-07-28T08:49:22.110Z,56.25
2022-07-28T08:50:22.020Z,61.88
2022-07-28T08:51:22.002Z,78.75
2022-07-28T08:52:21.982Z,61.88
2022-07-28T08:53:21.967Z,67.50
2022-07-28T08:54:21.944Z,78.75
2022-07-28T08:55:21.926Z,67.50
2022-07-28T08:56:21.907Z,67.50
2022-07-28T08:57:21.889Z,67.50
2022-07-28T08:58:21.870Z,67.50
2022-07-28T08:59:21.851Z,61.88
2022-07-28T09:00:21.830Z,67.50
2022-07-28T09:01:21.902Z,73.13
2022-07-28T09:02:21.996Z,73.13
2022-07-28T09:03:21.909Z,73.13
2022-07-28T09:04:21.754Z,73.13
2022-07-28T09:05:21.739Z,73.13
2022-07-28T09:06:21.715Z,73.13
2022-07-28T09:07:21.697Z,67.50
2022-07-28T09:08:21.686Z,67.50
2022-07-28T09:09:21.678Z,73.13
2022-07-28T09:10:21.647Z,73.13
2022-07-28T09:11:21.621Z,73.13
2022-07-28T09:12:21.602Z,73.13
2022-07-28T09:13:21.583Z,67.50
2022-07-28T09:14:21.563Z,67.50
2022-07-28T09:15:21.547Z,73.13
2022-07-28T09:16:21.637Z,67.50
2022-07-28T09:17:21.506Z,73.13
2022-07-28T09:18:21.488Z,73.13
2022-07-28T09:19:21.468Z,73.13
2022-07-28T09:20:21.490Z,73.13
2022-07-28T09:21:21.433Z,73.13
2022-07-28T09:22:21.413Z,73.13
2022-07-28T09:23:42.353Z,73.13
2022-07-28T09:24:21.374Z,73.13
2022-07-28T09:25:21.358Z,73.13
2022-07-28T09:26:21.345Z,73.13
2022-07-28T09:27:21.318Z,73.13
2022-07-28T09:28:21.300Z,73.13
2022-07-28T09:29:21.282Z,73.13
2022-07-28T09:30:21.263Z,73.13
2022-07-28T09:31:21.350Z,73.13
2022-07-28T09:32:21.232Z,78.75
2022-07-28T09:33:42.088Z,73.13
2022-07-28T09:34:21.188Z,73.13
2022-07-28T09:35:21.169Z,73.13
2022-07-28T09:36:21.151Z,73.13
2022-07-28T09:37:26.762Z,73.13
2022-07-28T09:38:21.112Z,73.13
2022-07-28T09:39:21.093Z,73.13
2022-07-28T09:40:22.477Z,73.13
2022-07-28T09:41:21.058Z,73.13
2022-07-28T09:42:21.038Z,73.13
2022-07-28T09:43:21.019Z,67.50
2022-07-28T09:44:21.005Z,78.75
2022-07-28T09:45:23.325Z,73.13
2022-07-28T09:46:21.183Z,73.13
2022-07-28T09:47:21.239Z,73.13
2022-07-28T09:48:21.103Z,78.75
2022-07-28T09:49:24.014Z,78.75
2022-07-28T09:50:20.892Z,78.75
2022-07-28T09:51:20.871Z,78.75
2022-07-28T09:52:20.851Z,78.75
2022-07-28T09:53:20.838Z,78.75
2022-07-28T09:54:20.821Z,78.75
2022-07-28T09:55:20.796Z,78.75
2022-07-28T09:56:20.780Z,73.13
2022-07-28T09:57:20.760Z,73.13
2022-07-28T09:58:20.743Z,78.75
2022-07-28T09:59:20.749Z,78.75
2022-07-28T10:00:20.706Z,78.75
2022-07-28T10:01:20.784Z,84.38
2022-07-28T10:02:20.776Z,78.75
2022-07-28T10:03:20.700Z,78.75
2022-07-28T10:04:20.917Z,78.75
2022-07-28T10:05:20.614Z,78.75
2022-07-28T10:06:20.593Z,78.75
2022-07-28T10:07:20.576Z,84.38
2022-07-28T10:08:20.557Z,78.75
2022-07-28T10:09:20.548Z,78.75
2022-07-28T10:10:20.539Z,78.75
2022-07-28T10:11:20.502Z,78.75
2022-07-28T10:12:20.485Z,78.75
2022-07-28T10:13:20.467Z,78.75
2022-07-28T10:14:20.453Z,78.75
2022-07-28T10:15:20.428Z,78.75
2022-07-28T10:16:20.498Z,78.75
2022-07-28T10:17:20.392Z,78.75
2022-07-28T10:18:20.373Z,78.75
2022-07-28T10:19:20.355Z,78.75
2022-07-28T10:20:20.336Z,78.75
2022-07-28T10:21:20.322Z,84.38
2022-07-28T10:22:20.302Z,78.75
2022-07-28T10:23:20.284Z,78.75
2022-07-28T10:24:20.268Z,67.50
2022-07-28T10:25:20.251Z,73.13
2022-07-28T10:26:20.234Z,78.75
2022-07-28T10:27:20.211Z,78.75
2022-07-28T10:28:20.209Z,78.75
2022-07-28T10:29:20.178Z,78.75
2022-07-28T10:30:20.157Z,78.75
2022-07-28T10:31:20.266Z,78.75
2022-07-28T10:32:20.122Z,78.75
2022-07-28T10:33:20.104Z,84.38
2022-07-28T10:34:20.545Z,78.75
2022-07-28T10:35:20.069Z,78.75
2022-07-28T10:36:20.057Z,78.75
2022-07-28T10:37:20.039Z,78.75
2022-07-28T10:38:20.018Z,73.13
2022-07-28T10:39:19.999Z,73.13
2022-07-28T10:40:19.978Z,73.13
2022-07-28T10:41:19.962Z,73.13
2022-07-28T10:42:19.944Z,73.13
2022-07-28T10:43:19.930Z,73.13
2022-07-28T10:44:20.086Z,78.75
2022-07-28T10:45:19.891Z,78.75
2022-07-28T10:46:19.924Z,78.75
2022-07-28T10:47:19.893Z,78.75
2022-07-28T10:48:19.836Z,78.75
2022-07-28T10:49:20.109Z,78.75
2022-07-28T10:50:19.813Z,78.75
2022-07-28T10:51:19.798Z,78.75
2022-07-28T10:52:45.726Z,78.75
2022-07-28T10:53:19.750Z,78.75
2022-07-28T10:54:25.144Z,78.75
2022-07-28T10:55:20.459Z,73.13
2022-07-28T10:56:19.698Z,73.13
2022-07-28T10:57:19.680Z,73.13
2022-07-28T10:58:25.022Z,73.13
2022-07-28T10:59:19.646Z,73.13
2022-07-28T11:00:25.719Z,73.13
2022-07-28T11:01:46.305Z,73.13
2022-07-28T11:02:19.696Z,73.13
2022-07-28T11:03:19.704Z,78.75
2022-07-28T11:04:19.559Z,78.75
2022-07-28T11:05:19.538Z,73.13
2022-07-28T11:06:19.519Z,73.13
2022-07-28T11:07:19.503Z,73.13
2022-07-28T11:08:19.490Z,73.13
2022-07-28T11:09:19.469Z,73.13
2022-07-28T11:10:19.454Z,73.13
2022-07-28T11:11:19.432Z,67.50
2022-07-28T11:12:19.415Z,73.13
2022-07-28T11:13:19.397Z,73.13
2022-07-28T11:14:19.383Z,78.75
2022-07-28T11:15:19.361Z,61.88
2022-07-28T11:16:19.393Z,33.75
2022-07-28T11:17:23.980Z,28.13
2022-07-28T11:18:19.309Z,56.25
2022-07-28T11:19:36.420Z,73.13
2022-07-28T11:20:29.700Z,73.13
2022-07-28T11:21:19.256Z,73.13
2022-07-28T11:22:19.241Z,73.13
2022-07-28T11:23:19.221Z,73.13
2022-07-28T11:24:19.204Z,73.13
2022-07-28T11:25:22.371Z,73.13
2022-07-28T11:26:19.166Z,73.13
2022-07-28T11:27:19.149Z,73.13
2022-07-28T11:28:19.129Z,73.13
2022-07-28T11:29:19.118Z,73.13
2022-07-28T11:30:19.318Z,73.13
2022-07-28T11:31:19.215Z,73.13
2022-07-28T11:32:19.066Z,73.13
2022-07-28T11:33:19.048Z,73.13
2022-07-28T11:34:19.025Z,73.13
2022-07-28T11:35:19.011Z,73.13
2022-07-28T11:36:18.989Z,73.13
2022-07-28T11:37:18.973Z,73.13
2022-07-28T11:38:18.959Z,73.13
2022-07-28T11:39:18.940Z,73.13
2022-07-28T11:40:18.930Z,73.13
2022-07-28T11:41:18.905Z,73.13
2022-07-28T11:42:18.887Z,73.13
2022-07-28T11:43:19.534Z,78.75
2022-07-28T11:44:18.852Z,73.13
2022-07-28T11:45:18.833Z,73.13
2022-07-28T11:46:18.871Z,67.50
2022-07-28T11:47:18.798Z,73.13
2022-07-28T11:48:18.781Z,73.13
2022-07-28T11:49:18.855Z,73.13
2022-07-28T11:50:18.749Z,73.13
2022-07-28T11:51:18.725Z,73.13
2022-07-28T11:52:20.154Z,73.13
2022-07-28T11:53:18.702Z,73.13
2022-07-28T11:54:18.683Z,73.13
2022-07-28T11:55:18.665Z,73.13
2022-07-28T11:56:18.641Z,73.13
2022-07-28T11:57:18.624Z,73.13
2022-07-28T11:58:18.608Z,73.13
2022-07-28T11:59:18.589Z,73.13
2022-07-28T12:00:18.573Z,73.13
2022-07-28T12:01:19.115Z,73.13
2022-07-28T12:02:18.660Z,73.13
2022-07-28T12:03:18.530Z,67.50
2022-07-28T12:04:18.708Z,61.88
2022-07-28T12:05:18.487Z,67.50
2022-07-28T12:06:29.095Z,67.50
2022-07-28T12:07:18.454Z,67.50
2022-07-28T12:08:18.434Z,67.50
2022-07-28T12:09:23.478Z,67.50
2022-07-28T12:10:43.962Z,67.50
2022-07-28T12:11:18.381Z,67.50
2022-07-28T12:12:18.380Z,73.13
2022-07-28T12:13:18.355Z,73.13
2022-07-28T12:14:18.714Z,73.13
2022-07-28T12:15:18.314Z,73.13
2022-07-28T12:16:18.318Z,73.13
2022-07-28T12:17:18.286Z,73.13
2022-07-28T12:18:18.264Z,73.13
2022-07-28T12:19:18.459Z,73.13
2022-07-28T12:20:18.229Z,73.13
2022-07-28T12:21:18.212Z,28.13
2022-07-28T12:22:18.194Z,45.00
2022-07-28T12:23:18.182Z,67.50
2022-07-28T12:24:19.140Z,67.50
2022-07-28T12:25:19.952Z,67.50
2022-07-28T12:26:18.133Z,67.50
2022-07-28T12:27:18.107Z,67.50
2022-07-28T12:28:18.171Z,73.13
2022-07-28T12:29:20.395Z,73.13
2022-07-28T12:30:18.063Z,73.13
2022-07-28T12:31:18.123Z,73.13
2022-07-28T12:32:18.107Z,67.50
2022-07-28T12:33:18.005Z,61.88
2022-07-28T12:34:18.171Z,61.88
2022-07-28T12:35:17.972Z,73.13
2022-07-28T12:36:17.955Z,73.13
2022-07-28T12:37:17.933Z,73.13
2022-07-28T12:38:17.919Z,73.13
2022-07-28T12:39:17.909Z,73.13
2022-07-28T12:40:17.882Z,73.13
2022-07-28T12:41:17.874Z,67.50
2022-07-28T12:42:17.853Z,67.50
2022-07-28T12:43:17.834Z,67.50
2022-07-28T12:44:18.094Z,67.50
2022-07-28T12:45:17.795Z,67.50
2022-07-28T12:46:17.854Z,67.50
2022-07-28T12:47:17.789Z,73.13
2022-07-28T12:48:17.743Z,78.75
2022-07-28T12:49:17.778Z,78.75
2022-07-28T12:50:17.712Z,78.75
2022-07-28T12:51:17.693Z,73.13
2022-07-28T12:52:17.684Z,73.13
2022-07-28T12:53:17.662Z,73.13
2022-07-28T12:54:18.165Z,73.13
2022-07-28T12:55:17.621Z,67.50
2022-07-28T12:56:17.607Z,73.13
2022-07-28T12:57:17.589Z,73.13
2022-07-28T12:58:17.572Z,67.50
2022-07-28T12:59:17.557Z,73.13
2022-07-28T13:00:17.538Z,73.13
2022-07-28T13:01:17.584Z,73.13
2022-07-28T13:02:17.569Z,73.13
2022-07-28T13:03:17.487Z,73.13